Terminal Aerodrome Forecast
Issued by NWS

Home | Current Version | Previous Version | Text Only | Print | Product List | Glossary On
Versions: 1 2 3 4 5 6 7 8 9 10 11 12 13 14 15 16 17 18 19 20
185
FTUS43 KDVN 090912 AAA
TAFBRL
TAF AMD
KBRL 090912Z 0909/1006 31015G22KT 4SM -SN BR SCT015 OVC025
      TEMPO 0909/0912 2SM -SN BR OVC015
     FM091500 32016G23KT P6SM BKN025
     FM092100 32015G25KT P6SM SCT025=

USA.gov is the U.S. government's official web portal to all federal, state and local government web resources and services.